createdAt,value
2023-11-22T00:02:22.162Z,-1.50
2023-11-22T00:04:49.191Z,-1.50
2023-11-22T00:07:16.117Z,-1.60
2023-11-22T00:09:43.627Z,-1.50
2023-11-22T00:12:11.264Z,-1.50
2023-11-22T00:14:38.699Z,-1.60
2023-11-22T00:17:05.869Z,-1.50
2023-11-22T00:19:34.021Z,-1.50
2023-11-22T00:22:01.386Z,-1.60
2023-11-22T00:24:28.381Z,-1.60
2023-11-22T00:26:55.373Z,-1.60
2023-11-22T00:29:22.452Z,-1.60
2023-11-22T00:31:49.915Z,-1.60
2023-11-22T00:34:19.805Z,-1.50
2023-11-22T00:36:48.290Z,-1.50
2023-11-22T00:39:15.421Z,-1.60
2023-11-22T00:41:42.474Z,-1.60
2023-11-22T00:44:09.716Z,-1.60
2023-11-22T00:46:38.385Z,-1.60
2023-11-22T00:49:05.826Z,-1.70
2023-11-22T00:51:33.876Z,-1.70
2023-11-22T00:54:01.253Z,-1.70
2023-11-22T00:56:28.496Z,-1.70
2023-11-22T00:58:56.638Z,-1.60
2023-11-22T01:01:23.885Z,-1.50
2023-11-22T01:03:51.046Z,-1.60
2023-11-22T01:06:19.280Z,-1.60
2023-11-22T01:08:46.308Z,-1.70
2023-11-22T01:11:13.493Z,-1.70
2023-11-22T01:13:44.236Z,-1.70
2023-11-22T01:16:12.067Z,-1.70
2023-11-22T01:18:40.347Z,-1.80
2023-11-22T01:21:07.759Z,-1.80
2023-11-22T01:23:34.790Z,-1.80
2023-11-22T01:26:04.200Z,-1.70
2023-11-22T01:28:35.371Z,-1.80
2023-11-22T01:31:05.468Z,-1.90
2023-11-22T01:33:33.949Z,-2.00
2023-11-22T01:36:00.989Z,-2.00
2023-11-22T01:38:28.348Z,-1.90
2023-11-22T01:40:55.559Z,-2.00
2023-11-22T01:43:25.398Z,-2.00
2023-11-22T01:45:53.406Z,-2.00
2023-11-22T01:48:20.974Z,-2.00
2023-11-22T01:50:49.274Z,-2.00
2023-11-22T01:53:19.992Z,-2.00
2023-11-22T01:55:48.548Z,-2.00
2023-11-22T01:58:16.036Z,-2.00
2023-11-22T02:00:53.920Z,-2.10
2023-11-22T02:03:22.374Z,-2.10
2023-11-22T02:05:50.596Z,-2.20
2023-11-22T02:08:20.166Z,-2.20
2023-11-22T02:10:50.602Z,-2.20
2023-11-22T02:13:17.635Z,-2.20
2023-11-22T02:15:44.609Z,-2.20
2023-11-22T02:18:13.857Z,-2.10
2023-11-22T02:20:42.713Z,-2.10
2023-11-22T02:23:11.041Z,-2.20
2023-11-22T02:25:38.762Z,-2.20
2023-11-22T02:28:05.972Z,-2.10
2023-11-22T02:30:33.036Z,-2.10
2023-11-22T02:33:00.702Z,-2.20
2023-11-22T02:35:31.610Z,-2.20
2023-11-22T02:37:59.037Z,-2.10
2023-11-22T02:40:26.346Z,-2.10
2023-11-22T02:42:54.786Z,-2.00
2023-11-22T02:45:26.874Z,-2.10
2023-11-22T02:47:54.145Z,-2.10
2023-11-22T02:50:21.664Z,-2.10
2023-11-22T02:52:48.657Z,-2.30
2023-11-22T02:55:16.094Z,-2.30
2023-11-22T02:57:43.435Z,-2.40
2023-11-22T03:00:17.145Z,-2.40
2023-11-22T03:02:44.545Z,-2.40
2023-11-22T03:05:12.231Z,-2.40
2023-11-22T03:07:39.448Z,-2.40
2023-11-22T03:10:08.868Z,-2.30
2023-11-22T03:12:36.525Z,-2.30
2023-11-22T03:15:03.905Z,-2.30
2023-11-22T03:17:31.273Z,-2.30
2023-11-22T03:19:59.294Z,-2.30
2023-11-22T03:22:34.760Z,-2.40
2023-11-22T03:25:03.694Z,-2.40
2023-11-22T03:27:31.140Z,-2.40
2023-11-22T03:29:58.418Z,-2.50
2023-11-22T03:32:25.450Z,-2.60
2023-11-22T03:34:52.422Z,-2.60
2023-11-22T03:37:19.422Z,-2.60
2023-11-22T03:39:49.916Z,-2.60
2023-11-22T03:42:17.761Z,-2.70
2023-11-22T03:44:45.495Z,-2.80
2023-11-22T03:47:15.750Z,-2.80
2023-11-22T03:49:44.178Z,-2.70
2023-11-22T03:52:15.498Z,-2.80
2023-11-22T03:54:42.722Z,-2.90
2023-11-22T03:57:09.684Z,-3.00
2023-11-22T03:59:37.298Z,-3.10
2023-11-22T04:02:05.136Z,-3.10
2023-11-22T04:04:32.514Z,-3.20
2023-11-22T04:07:00.072Z,-3.20
2023-11-22T04:09:27.174Z,-3.20
2023-11-22T04:11:54.315Z,-3.30
2023-11-22T04:14:22.949Z,-3.40
2023-11-22T04:16:50.716Z,-3.50
2023-11-22T04:19:18.340Z,-3.50
2023-11-22T04:21:45.717Z,-3.50
2023-11-22T04:24:13.537Z,-3.60
2023-11-22T04:26:40.643Z,-3.70
2023-11-22T04:29:07.838Z,-3.70
2023-11-22T04:31:34.733Z,-3.70
2023-11-22T04:34:02.207Z,-3.70
2023-11-22T04:36:29.346Z,-3.80
2023-11-22T04:38:56.466Z,-3.80
2023-11-22T04:41:24.098Z,-3.80
2023-11-22T04:43:51.309Z,-3.80
2023-11-22T04:46:18.468Z,-3.90
2023-11-22T04:48:46.551Z,-3.90
2023-11-22T04:51:13.671Z,-4.00
2023-11-22T04:53:40.674Z,-4.10
2023-11-22T04:56:08.233Z,-4.10
2023-11-22T04:58:35.533Z,-4.10
2023-11-22T05:01:03.347Z,-4.10
2023-11-22T05:03:30.600Z,-4.20
2023-11-22T05:05:57.600Z,-4.20
2023-11-22T05:08:24.555Z,-4.20
2023-11-22T05:10:53.785Z,-4.20
2023-11-22T05:13:21.722Z,-4.20
2023-11-22T05:15:49.120Z,-4.20
2023-11-22T05:18:16.070Z,-4.30
2023-11-22T05:20:43.160Z,-4.30
2023-11-22T05:23:10.516Z,-4.30
2023-11-22T05:25:37.675Z,-4.30
2023-11-22T05:28:04.998Z,-4.30
2023-11-22T05:30:32.198Z,-4.40
2023-11-22T05:32:59.722Z,-4.40
2023-11-22T05:35:26.711Z,-4.50
2023-11-22T05:37:53.925Z,-4.50
2023-11-22T05:40:20.859Z,-4.50
2023-11-22T05:42:48.169Z,-4.50
2023-11-22T05:45:15.310Z,-4.60
2023-11-22T05:47:44.085Z,-4.60
2023-11-22T05:50:11.433Z,-4.60
2023-11-22T05:52:38.539Z,-4.70
2023-11-22T05:55:06.600Z,-4.70
2023-11-22T05:57:33.513Z,-4.70
2023-11-22T06:00:00.916Z,-4.70
2023-11-22T06:02:28.310Z,-4.70
2023-11-22T06:04:56.070Z,-4.60
2023-11-22T06:07:24.036Z,-4.60
2023-11-22T06:09:51.103Z,-4.70
2023-11-22T06:12:18.109Z,-4.60
2023-11-22T06:14:45.147Z,-4.70
2023-11-22T06:17:13.436Z,-4.70
2023-11-22T06:19:40.466Z,-4.70
2023-11-22T06:22:08.066Z,-4.80
2023-11-22T06:24:37.400Z,-4.70
2023-11-22T06:27:05.024Z,-4.80
2023-11-22T06:29:32.641Z,-4.70
2023-11-22T06:32:00.042Z,-4.70
2023-11-22T06:34:27.836Z,-4.70
2023-11-22T06:36:54.991Z,-4.70
2023-11-22T06:39:23.908Z,-4.70
2023-11-22T06:41:52.060Z,-4.70
2023-11-22T06:44:19.749Z,-4.60
2023-11-22T06:46:47.800Z,-4.60
2023-11-22T06:49:15.925Z,-4.70
2023-11-22T06:51:43.137Z,-4.70
2023-11-22T06:54:11.795Z,-4.80
2023-11-22T06:56:39.242Z,-4.80
2023-11-22T06:59:06.276Z,-4.80
2023-11-22T07:01:33.575Z,-4.70
2023-11-22T07:04:02.469Z,-4.60
2023-11-22T07:06:29.829Z,-4.50
2023-11-22T07:08:57.023Z,-4.50
2023-11-22T07:11:25.395Z,-4.50
2023-11-22T07:13:53.646Z,-4.50
2023-11-22T07:16:22.004Z,-4.50
2023-11-22T07:18:49.212Z,-4.30
2023-11-22T07:21:16.241Z,-4.20
2023-11-22T07:23:43.313Z,-3.90
2023-11-22T07:26:11.530Z,-3.40
2023-11-22T07:28:38.957Z,-3.00
2023-11-22T07:31:09.085Z,-2.70
2023-11-22T07:33:36.699Z,-2.40
2023-11-22T07:36:05.122Z,-2.30
2023-11-22T07:38:34.419Z,-2.00
2023-11-22T07:41:02.406Z,-1.70
2023-11-22T07:43:29.478Z,-1.50
2023-11-22T07:45:56.422Z,-1.20
2023-11-22T07:48:24.209Z,-1.00
2023-11-22T07:50:54.609Z,-0.90
2023-11-22T07:53:21.825Z,-0.80
2023-11-22T07:55:49.363Z,-0.60
2023-11-22T07:58:17.324Z,-0.70
2023-11-22T08:00:46.864Z,-0.80
2023-11-22T08:03:16.995Z,-0.60
2023-11-22T08:05:47.304Z,-0.50
2023-11-22T08:08:14.796Z,-0.20
2023-11-22T08:10:43.922Z,-0.10
2023-11-22T08:13:11.049Z,-0.20
2023-11-22T08:15:39.654Z,-0.10
2023-11-22T08:18:07.096Z,0.00
2023-11-22T08:20:34.276Z,0.20
2023-11-22T08:23:01.808Z,0.20
2023-11-22T08:25:29.014Z,0.40
2023-11-22T08:27:56.876Z,0.50
2023-11-22T08:30:24.363Z,0.40
2023-11-22T08:32:57.220Z,0.30
2023-11-22T08:35:25.232Z,0.20
2023-11-22T08:37:53.223Z,-0.10
2023-11-22T08:40:22.067Z,-0.30
2023-11-22T08:42:49.627Z,-0.60
2023-11-22T08:45:17.088Z,-0.80
2023-11-22T08:47:44.774Z,-0.90
2023-11-22T08:50:16.990Z,-1.00
2023-11-22T08:52:46.949Z,-1.10
2023-11-22T08:55:16.056Z,-1.20
2023-11-22T08:57:43.417Z,-1.30
2023-11-22T09:00:12.119Z,-1.50
2023-11-22T09:02:40.773Z,-1.50
2023-11-22T09:05:14.482Z,-1.70
2023-11-22T09:07:42.156Z,-1.70
2023-11-22T09:10:11.747Z,-1.60
2023-11-22T09:12:43.218Z,-1.60
2023-11-22T09:15:14.056Z,-1.60
2023-11-22T09:17:45.030Z,-1.60
2023-11-22T09:20:16.573Z,-1.60
2023-11-22T09:22:54.496Z,-1.60
2023-11-22T09:25:26.296Z,-1.60
2023-11-22T09:27:57.165Z,-1.60
2023-11-22T09:30:34.618Z,-1.70
2023-11-22T09:33:06.878Z,-1.70
2023-11-22T09:35:34.992Z,-1.60
2023-11-22T09:38:03.987Z,-1.60
2023-11-22T09:40:33.434Z,-1.60
2023-11-22T09:43:03.268Z,-1.70
2023-11-22T09:45:34.540Z,-1.70
2023-11-22T09:48:03.565Z,-1.70
2023-11-22T09:50:40.402Z,-1.70
2023-11-22T09:53:14.212Z,-1.60
2023-11-22T09:55:44.993Z,-1.60
2023-11-22T09:58:14.218Z,-1.50
2023-11-22T10:00:43.628Z,-1.60
2023-11-22T10:03:15.970Z,-1.60
2023-11-22T10:05:46.222Z,-1.50
2023-11-22T10:08:14.032Z,-1.50
2023-11-22T10:10:46.533Z,-1.50
2023-11-22T10:13:14.313Z,-1.60
2023-11-22T10:15:41.402Z,-1.50
2023-11-22T10:18:08.676Z,-1.40
2023-11-22T10:20:41.395Z,-1.40
2023-11-22T10:23:13.607Z,-1.30
2023-11-22T10:25:53.022Z,-1.40
2023-11-22T10:28:29.483Z,-1.40
2023-11-22T10:30:59.006Z,-1.40
2023-11-22T10:33:28.958Z,-1.40
2023-11-22T10:35:56.956Z,-1.40
2023-11-22T10:38:24.033Z,-1.40
2023-11-22T10:40:53.645Z,-1.30
2023-11-22T10:43:24.787Z,-1.20
2023-11-22T10:45:54.875Z,-1.10
2023-11-22T10:48:22.564Z,-1.10
2023-11-22T10:50:50.173Z,-1.20
2023-11-22T10:53:21.848Z,-1.10
2023-11-22T10:55:50.148Z,-1.10
2023-11-22T10:58:18.939Z,-1.10
2023-11-22T11:00:48.119Z,-1.00
2023-11-22T11:03:23.803Z,-1.00
2023-11-22T11:06:05.874Z,-1.00
2023-11-22T11:08:35.530Z,-1.00
2023-11-22T11:11:04.783Z,-1.00
2023-11-22T11:13:32.464Z,-0.90
2023-11-22T11:16:00.873Z,-0.90
2023-11-22T11:18:31.826Z,-0.80
2023-11-22T11:21:13.714Z,-0.70
2023-11-22T11:23:42.807Z,-0.70
2023-11-22T11:26:25.623Z,-0.40
2023-11-22T11:28:55.115Z,0.20
2023-11-22T11:31:23.888Z,1.00
2023-11-22T11:33:54.798Z,2.00
2023-11-22T11:36:30.410Z,2.90
2023-11-22T11:38:59.195Z,3.50
2023-11-22T11:41:34.869Z,4.10
2023-11-22T11:44:08.958Z,4.20
2023-11-22T11:46:37.933Z,4.50
2023-11-22T11:49:11.636Z,5.10
2023-11-22T11:51:40.071Z,5.30
2023-11-22T11:54:07.897Z,5.20
2023-11-22T11:56:35.816Z,4.70
2023-11-22T11:59:03.607Z,4.20
2023-11-22T12:01:32.459Z,3.80
2023-11-22T12:04:02.298Z,3.30
2023-11-22T12:06:30.822Z,3.00
2023-11-22T12:08:59.692Z,2.50
2023-11-22T12:11:27.152Z,2.20
2023-11-22T12:13:56.223Z,2.10
2023-11-22T12:16:23.972Z,1.90
2023-11-22T12:18:52.821Z,1.70
2023-11-22T12:21:20.787Z,1.50
2023-11-22T12:23:49.772Z,1.20
2023-11-22T12:26:20.960Z,1.00
2023-11-22T12:29:00.646Z,1.20
2023-11-22T12:31:37.167Z,0.90
2023-11-22T12:34:08.698Z,0.90
2023-11-22T12:36:37.751Z,0.70
2023-11-22T12:39:10.256Z,0.60
2023-11-22T12:41:38.213Z,0.50
2023-11-22T12:44:09.617Z,0.60
2023-11-22T12:46:51.418Z,1.00
2023-11-22T12:49:20.346Z,1.60
2023-11-22T12:51:51.813Z,2.10
2023-11-22T12:54:22.791Z,2.50
2023-11-22T12:57:01.048Z,2.40
2023-11-22T12:59:29.399Z,2.70
2023-11-22T13:01:57.529Z,3.00
2023-11-22T13:04:25.030Z,3.10
2023-11-22T13:06:52.242Z,3.40
2023-11-22T13:09:19.265Z,3.30
2023-11-22T13:11:47.176Z,3.60
2023-11-22T13:14:18.083Z,3.70
2023-11-22T13:16:46.702Z,3.80
2023-11-22T13:19:14.717Z,4.00
2023-11-22T13:21:46.115Z,3.60
2023-11-22T13:24:15.329Z,3.50
2023-11-22T13:26:46.031Z,3.20
2023-11-22T13:29:13.304Z,3.20
2023-11-22T13:31:40.907Z,3.10
2023-11-22T13:34:08.180Z,3.10
2023-11-22T13:36:36.347Z,3.10
2023-11-22T13:39:04.826Z,3.20
2023-11-22T13:41:33.986Z,3.40
2023-11-22T13:44:02.148Z,3.50
2023-11-22T13:46:30.492Z,3.00
2023-11-22T13:48:59.264Z,2.90
2023-11-22T13:51:26.469Z,2.60
2023-11-22T13:53:54.891Z,2.50
2023-11-22T13:56:23.198Z,2.40
2023-11-22T13:58:50.576Z,2.40
2023-11-22T14:01:23.291Z,2.30
2023-11-22T14:03:51.187Z,2.30
2023-11-22T14:06:19.471Z,2.30
2023-11-22T14:08:46.744Z,2.10
2023-11-22T14:11:14.287Z,1.80
2023-11-22T14:13:42.229Z,1.30
2023-11-22T14:16:14.847Z,0.80
2023-11-22T14:18:42.389Z,0.70
2023-11-22T14:21:10.055Z,0.50
2023-11-22T14:23:37.587Z,0.20
2023-11-22T14:26:05.276Z,0.00
2023-11-22T14:28:34.161Z,0.00
2023-11-22T14:31:01.924Z,-0.10
2023-11-22T14:33:33.192Z,-0.30
2023-11-22T14:36:01.292Z,-0.50
2023-11-22T14:38:28.691Z,-0.50
2023-11-22T14:40:57.756Z,-0.60
2023-11-22T14:43:25.018Z,-0.60
2023-11-22T14:45:52.744Z,-0.70
2023-11-22T14:48:20.224Z,-0.80
2023-11-22T14:50:47.783Z,-0.70
2023-11-22T14:53:14.808Z,-0.80
2023-11-22T14:55:43.010Z,-0.80
2023-11-22T14:58:12.677Z,-0.90
2023-11-22T15:00:39.970Z,-0.90
2023-11-22T15:03:09.001Z,-1.00
2023-11-22T15:05:36.010Z,-1.00
2023-11-22T15:08:03.165Z,-1.20
2023-11-22T15:10:30.645Z,-1.10
2023-11-22T15:12:58.980Z,-1.20
2023-11-22T15:15:27.078Z,-1.30
2023-11-22T15:17:55.556Z,-1.30
2023-11-22T15:20:23.496Z,-1.20
2023-11-22T15:22:51.918Z,-1.40
2023-11-22T15:25:20.010Z,-1.40
2023-11-22T15:27:47.121Z,-1.40
2023-11-22T15:30:14.226Z,-1.40
2023-11-22T15:32:41.966Z,-1.40
2023-11-22T15:35:10.826Z,-1.40
2023-11-22T15:37:38.510Z,-1.50
2023-11-22T15:40:08.886Z,-1.50
2023-11-22T15:42:36.241Z,-1.50
2023-11-22T15:45:04.094Z,-1.50
2023-11-22T15:47:37.208Z,-1.60
2023-11-22T15:50:08.211Z,-1.50
2023-11-22T15:52:35.686Z,-1.50
2023-11-22T15:55:02.907Z,-1.70
2023-11-22T15:57:30.481Z,-1.60
2023-11-22T15:59:58.734Z,-1.60
2023-11-22T16:02:26.575Z,-1.60
2023-11-22T16:04:53.819Z,-1.50
2023-11-22T16:07:22.317Z,-1.50
2023-11-22T16:09:50.657Z,-1.50
2023-11-22T16:12:20.835Z,-1.70
2023-11-22T16:14:49.121Z,-1.60
2023-11-22T16:17:17.344Z,-1.50
2023-11-22T16:19:46.631Z,-1.50
2023-11-22T16:22:13.820Z,-1.60
2023-11-22T16:24:42.586Z,-1.50
2023-11-22T16:27:09.647Z,-1.50
2023-11-22T16:29:37.753Z,-1.50
2023-11-22T16:32:07.953Z,-1.50
2023-11-22T16:34:35.765Z,-1.60
2023-11-22T16:37:04.662Z,-1.60
2023-11-22T16:39:32.440Z,-1.50
2023-11-22T16:41:59.948Z,-1.50
2023-11-22T16:44:27.188Z,-1.60
2023-11-22T16:46:54.482Z,-1.60
2023-11-22T16:49:22.123Z,-1.50
2023-11-22T16:51:49.265Z,-1.50
2023-11-22T16:54:16.398Z,-1.50
2023-11-22T16:56:43.519Z,-1.50
2023-11-22T16:59:10.985Z,-1.50
2023-11-22T17:01:38.217Z,-1.40
2023-11-22T17:04:05.487Z,-1.50
2023-11-22T17:06:32.832Z,-1.50
2023-11-22T17:09:00.028Z,-1.50
2023-11-22T17:11:27.311Z,-1.60
2023-11-22T17:13:54.490Z,-1.50
2023-11-22T17:16:21.994Z,-1.60
2023-11-22T17:18:49.388Z,-1.50
2023-11-22T17:21:18.256Z,-1.60
2023-11-22T17:23:46.131Z,-1.50
2023-11-22T17:26:13.655Z,-1.50
2023-11-22T17:28:41.056Z,-1.70
2023-11-22T17:31:08.199Z,-1.70
2023-11-22T17:33:35.828Z,-1.70
2023-11-22T17:36:03.242Z,-1.80
2023-11-22T17:38:30.366Z,-1.70
2023-11-22T17:40:57.366Z,-1.70
2023-11-22T17:43:24.666Z,-1.70
2023-11-22T17:45:51.908Z,-1.70
2023-11-22T17:48:19.247Z,-1.80
2023-11-22T17:50:46.629Z,-1.70
2023-11-22T17:53:16.690Z,-1.70
2023-11-22T17:55:44.271Z,-1.70
2023-11-22T17:58:11.564Z,-1.70
2023-11-22T18:00:38.639Z,-1.80
2023-11-22T18:03:05.932Z,-1.90
2023-11-22T18:05:33.108Z,-2.00
2023-11-22T18:08:00.469Z,-2.00
2023-11-22T18:10:35.204Z,-2.10
2023-11-22T18:13:09.226Z,-2.10
2023-11-22T18:15:39.015Z,-2.10
2023-11-22T18:18:06.597Z,-2.10
2023-11-22T18:20:36.285Z,-2.10
2023-11-22T18:23:03.577Z,-2.10
2023-11-22T18:25:30.610Z,-2.10
2023-11-22T18:27:58.423Z,-2.10
2023-11-22T18:30:25.378Z,-2.20
2023-11-22T18:32:52.722Z,-2.20
2023-11-22T18:35:21.226Z,-2.20
2023-11-22T18:37:49.347Z,-2.10
2023-11-22T18:40:17.577Z,-2.10
2023-11-22T18:42:45.815Z,-2.20
2023-11-22T18:45:13.943Z,-2.30
2023-11-22T18:47:42.326Z,-2.30
2023-11-22T18:50:10.136Z,-2.30
2023-11-22T18:52:37.457Z,-2.30
2023-11-22T18:55:04.629Z,-2.40
2023-11-22T18:57:31.868Z,-2.40
2023-11-22T18:59:59.193Z,-2.40
2023-11-22T19:02:26.292Z,-2.40
2023-11-22T19:04:53.361Z,-2.40
2023-11-22T19:07:20.524Z,-2.40
2023-11-22T19:09:48.902Z,-2.50
2023-11-22T19:12:16.527Z,-2.50
2023-11-22T19:14:43.773Z,-2.50
2023-11-22T19:17:12.397Z,-2.50
2023-11-22T19:19:42.974Z,-2.60
2023-11-22T19:22:10.724Z,-2.60
2023-11-22T19:24:39.092Z,-2.60
2023-11-22T19:27:07.168Z,-2.70
2023-11-22T19:29:34.532Z,-2.70
2023-11-22T19:32:01.935Z,-2.70
2023-11-22T19:34:29.222Z,-2.70
2023-11-22T19:36:56.687Z,-2.70
2023-11-22T19:39:25.847Z,-2.70
2023-11-22T19:41:54.040Z,-2.80
2023-11-22T19:44:21.508Z,-2.80
2023-11-22T19:46:48.689Z,-2.80
2023-11-22T19:49:16.465Z,-2.70
2023-11-22T19:51:43.715Z,-2.70
2023-11-22T19:54:12.193Z,-2.80
2023-11-22T19:56:40.424Z,-2.80
2023-11-22T19:59:07.677Z,-2.80
2023-11-22T20:01:34.957Z,-2.80
2023-11-22T20:04:02.288Z,-2.80
2023-11-22T20:06:30.110Z,-2.70
2023-11-22T20:08:57.202Z,-2.80
2023-11-22T20:11:24.680Z,-2.80
2023-11-22T20:13:55.856Z,-2.80
2023-11-22T20:16:23.018Z,-2.80
2023-11-22T20:18:51.468Z,-2.80
2023-11-22T20:21:19.022Z,-2.70
2023-11-22T20:23:46.326Z,-2.80
2023-11-22T20:26:13.779Z,-2.80
2023-11-22T20:28:41.503Z,-2.80
2023-11-22T20:31:12.792Z,-2.80
2023-11-22T20:33:40.225Z,-2.80
2023-11-22T20:36:07.838Z,-2.80
2023-11-22T20:38:35.632Z,-2.80
2023-11-22T20:41:03.930Z,-2.70
2023-11-22T20:43:32.139Z,-2.70
2023-11-22T20:45:59.874Z,-2.80
2023-11-22T20:48:27.178Z,-2.70
2023-11-22T20:50:54.291Z,-2.70
2023-11-22T20:53:21.488Z,-2.80
2023-11-22T20:55:48.496Z,-2.80
2023-11-22T20:58:15.875Z,-2.70
2023-11-22T21:00:42.977Z,-2.70
2023-11-22T21:03:10.160Z,-2.70
2023-11-22T21:05:37.417Z,-2.60
2023-11-22T21:08:10.960Z,-2.50
2023-11-22T21:10:45.104Z,-2.50
2023-11-22T21:13:12.312Z,-2.60
2023-11-22T21:15:40.424Z,-2.50
2023-11-22T21:18:08.496Z,-2.50
2023-11-22T21:20:35.708Z,-2.60
2023-11-22T21:23:02.818Z,-2.50
2023-11-22T21:25:29.749Z,-2.50
2023-11-22T21:27:56.716Z,-2.60
2023-11-22T21:30:23.729Z,-2.60
2023-11-22T21:32:51.243Z,-2.50
2023-11-22T21:35:18.448Z,-2.60
2023-11-22T21:37:45.424Z,-2.60
2023-11-22T21:40:14.182Z,-2.60
2023-11-22T21:42:41.548Z,-2.60
2023-11-22T21:45:12.503Z,-2.60
2023-11-22T21:47:40.113Z,-2.50
2023-11-22T21:50:08.473Z,-2.60
2023-11-22T21:52:36.051Z,-2.50
2023-11-22T21:55:03.292Z,-2.60
2023-11-22T21:57:30.381Z,-2.70
2023-11-22T21:59:57.557Z,-2.60
2023-11-22T22:02:24.603Z,-2.60
2023-11-22T22:04:51.961Z,-2.70
2023-11-22T22:07:19.370Z,-2.70
2023-11-22T22:09:46.440Z,-2.70
2023-11-22T22:12:13.910Z,-2.70
2023-11-22T22:14:43.087Z,-2.70
2023-11-22T22:17:10.179Z,-2.60
2023-11-22T22:19:37.345Z,-2.70
2023-11-22T22:22:04.755Z,-2.70
2023-11-22T22:24:32.067Z,-2.70
2023-11-22T22:26:58.961Z,-2.60
2023-11-22T22:29:25.953Z,-2.80
2023-11-22T22:31:52.969Z,-2.70
2023-11-22T22:34:20.229Z,-2.70
2023-11-22T22:36:47.642Z,-2.60
2023-11-22T22:39:15.019Z,-2.80
2023-11-22T22:41:42.126Z,-2.80
2023-11-22T22:44:09.146Z,-2.60
2023-11-22T22:46:40.988Z,-2.80
2023-11-22T22:49:08.369Z,-2.80
2023-11-22T22:51:36.086Z,-2.70
2023-11-22T22:54:04.262Z,-2.70
2023-11-22T22:56:31.886Z,-2.70
2023-11-22T22:58:58.814Z,-2.80
2023-11-22T23:01:25.825Z,-2.70
2023-11-22T23:03:53.072Z,-2.70
2023-11-22T23:06:27.513Z,-2.70
2023-11-22T23:08:54.984Z,-2.70
2023-11-22T23:11:22.470Z,-2.70
2023-11-22T23:13:50.973Z,-2.70
2023-11-22T23:16:21.271Z,-2.70
2023-11-22T23:18:55.731Z,-2.60
2023-11-22T23:21:27.611Z,-2.70
2023-11-22T23:23:55.119Z,-2.70
2023-11-22T23:26:23.406Z,-2.60
2023-11-22T23:28:50.676Z,-2.70
2023-11-22T23:31:18.278Z,-2.70
2023-11-22T23:33:49.957Z,-2.80
2023-11-22T23:36:17.394Z,-2.80
2023-11-22T23:38:45.578Z,-2.90
2023-11-22T23:41:13.423Z,-2.90
2023-11-22T23:43:40.412Z,-2.90
2023-11-22T23:46:09.031Z,-2.90
2023-11-22T23:48:36.281Z,-2.90
2023-11-22T23:51:03.872Z,-2.90
